Stevens Point, WI

5:15 AM CST on January 21, 2017 (GMT -0600)
2nd Street North | | Change Station
Active Advisory: Dense Fog Advisory

Elev 1115 ft 44.54 °N, 89.59 °W | Updated 3 minutes ago

Overcast
Overcast
33.4 °F
Feels Like 33 °F
N
1.2
Wind Variable Wind from NW
Gusts 2.5 mph

Today
High -- | Low -- °F
--% Chance of Precip.
Yesterday
High -- | Low -- °F
Precip. -- in
Pressure 29.55 in
Visibility 0.8 miles
Clouds Overcast 300 ft
Windchill 33 °F
Dew Point 32 °F
Humidity 94%
Rainfall 0.00 in
Snow Depth Not available.
7:27 AM 4:52 PM
Waning Crescent, 36% visible
METAR KSTE 211055Z AUTO 10006KT 3/4SM BR OVC003 00/00 A2955 RMK AO2 LTG DSNT SW T10011001
Pressure 29.55 in
Visibility 0.8 miles
Clouds Overcast 300 ft
Windchill 33 °F
Dew Point 32 °F
Humidity 94%
Rainfall 0.00 in
Snow Depth Not available.
7:27 AM 4:52 PM
Waning Crescent, 36% visible
METAR KSTE 211055Z AUTO 10006KT 3/4SM BR OVC003 00/00 A2955 RMK AO2 LTG DSNT SW T10011001

Get Your Daily Forecast Email!

Thanks for signing up!

Be on the lookout for a verification email in your inbox.

You'll start receiving the daily forecast at 8 AM.

×

10-Day Weather Forecast

Almanac

Astronomy

Jan. 21, 2017 Rise Set
Actual Time
Civil Twilight
Nautical Twilight
Astronomical Twilight
Moon
Length of Visible Light
Length of Day
Tomorrow will be .
, % of the Moon is Illuminated

Today's Extremes

State Highs State Lows

Community

WunderPhotos

Upload Photos

1,962,540 photos uploaded!

WunderBlog® & News

Nearby

Air Quality

  Air Quality AQ Index Pollutant
Not available.

Snow Depth

Station Depth Elevation

Earthquake Activity

City Distance Mag. Time & Date
Minimum magnitude displayed is 2.5.

Coastal Water Temperatures

Place Temperature

Stations

Nearby Weather Stations

Station Location Temp. Windchill Dew Point Humidity Wind Precip. Elev Updated Type
                   

Watches & Warnings

Dense Fog Advisory
Issued: 12:23 AM CST Jan. 21, 2017 – National Weather Service

... Dense fog advisory in effect until noon CST today...

The National Weather Service in Green Bay has issued a dense fog
advisory... which is in effect until noon CST today.

* Visibilities will drop to a quarter mile or less at times.

* Poor visibilities will result in hazardous driving conditions.

Precautionary/preparedness actions...

A dense fog advisory means visibilities will frequently be
reduced to less than one quarter mile. If driving... slow down...
use your low beam headlights... and keep a safe distance from
other vehicles.